Time;durP1;ratioP1;P1;durP2;ratioP2;P2;SDS_P1;SDS_P2;PMS_P1;PMS_P2;Temp;Humidity;BMP_temperature;BMP_pressure;BME280_temperature;BME280_humidity;BME280_pressure;Samples;Min_cycle;Max_cycle;Signal;HPM_P1;HPM_P2
2022/06/12 00:01:57;;;;;;;3.93;2.37;;;21.40;95.70;;;;;;4952826;28;21190;-75
2022/06/12 00:04:24;;;;;;;4.73;2.33;;;21.40;95.90;;;;;;4954758;28;20262;-75
2022/06/12 00:06:50;;;;;;;4.70;2.10;;;21.30;96.10;;;;;;4954885;29;20568;-75
2022/06/12 00:09:16;;;;;;;9.43;2.33;;;21.30;96.20;;;;;;4937617;29;20580;-74
2022/06/12 00:11:44;;;;;;;3.90;2.10;;;21.30;96.40;;;;;;4953768;28;20612;-74
2022/06/12 00:14:14;;;;;;;5.20;2.13;;;21.20;96.50;;;;;;4954460;28;20639;-75
2022/06/12 00:16:41;;;;;;;5.40;1.83;;;21.20;96.70;;;;;;4954742;28;20576;-75
2022/06/12 00:19:08;;;;;;;5.77;1.73;;;21.10;96.80;;;;;;4954576;28;20978;-75
2022/06/12 00:21:35;;;;;;;5.67;1.90;;;21.00;97.00;;;;;;4953704;28;20599;-75
2022/06/12 00:24:08;;;;;;;3.90;2.07;;;21.00;97.20;;;;;;4954471;28;20572;-75
2022/06/12 00:26:37;;;;;;;8.00;2.30;;;20.90;97.50;;;;;;4954354;29;20572;-75
2022/06/12 00:29:05;;;;;;;9.00;2.50;;;20.90;97.50;;;;;;4921442;29;20576;-75
2022/06/12 00:31:31;;;;;;;8.53;2.03;;;20.80;97.70;;;;;;4956530;28;20600;-74
2022/06/12 00:33:57;;;;;;;4.33;2.10;;;20.70;97.90;;;;;;4955609;28;20587;-75
2022/06/12 00:36:24;;;;;;;4.13;1.60;;;20.70;98.00;;;;;;4937197;29;20588;-74
2022/06/12 00:38:50;;;;;;;8.40;2.37;;;20.60;98.20;;;;;;4954188;28;20608;-75
2022/06/12 00:41:17;;;;;;;4.37;2.37;;;20.60;98.40;;;;;;4953315;28;20627;-75
2022/06/12 00:43:42;;;;;;;4.20;2.47;;;20.50;98.50;;;;;;4953611;28;20611;-75
2022/06/12 00:46:28;;;;;;;5.00;1.93;;;20.50;98.60;;;;;;4954219;28;20600;-75
2022/06/12 00:48:54;;;;;;;6.67;1.73;;;20.40;98.80;;;;;;4953944;28;20988;-75
2022/06/12 00:51:21;;;;;;;6.23;2.17;;;20.40;98.90;;;;;;4953109;28;20600;-75
2022/06/12 00:53:49;;;;;;;6.67;1.80;;;20.30;98.90;;;;;;4954005;28;20234;-75
2022/06/12 00:56:26;;;;;;;8.37;2.30;;;20.20;99.00;;;;;;4953808;28;20631;-75
2022/06/12 00:58:56;;;;;;;4.20;1.90;;;20.20;99.20;;;;;;4953870;28;20926;-75
2022/06/12 01:01:30;;;;;;;5.00;2.03;;;20.10;99.20;;;;;;4952809;28;20670;-75
2022/06/12 01:06:44;;;;;;;4.80;2.47;;;20.00;99.60;;;;;;4953822;28;20638;-75
2022/06/12 01:09:19;;;;;;;6.97;2.57;;;20.00;99.90;;;;;;4957166;28;20580;-74
2022/06/12 01:11:47;;;;;;;6.33;2.43;;;19.90;99.90;;;;;;4952588;28;20599;-75
2022/06/12 01:14:16;;;;;;;5.73;2.30;;;19.80;99.90;;;;;;4953633;28;20629;-75
2022/06/12 01:16:48;;;;;;;7.63;2.57;;;19.80;99.90;;;;;;4953679;28;20587;-75
2022/06/12 01:19:34;;;;;;;4.70;2.00;;;19.80;99.90;;;;;;4953680;28;20617;-75
2022/06/12 01:22:39;;;;;;;7.83;2.90;;;19.70;99.90;;;;;;4952974;28;20618;-75
2022/06/12 01:25:31;;;;;;;5.90;2.37;;;19.70;99.90;;;;;;4952201;28;20611;-75
2022/06/12 01:28:15;;;;;;;5.10;2.67;;;19.60;99.90;;;;;;4953706;28;20933;-75
2022/06/12 01:31:14;;;;;;;5.70;2.37;;;19.60;99.90;;;;;;4952922;28;20640;-74
2022/06/12 01:34:25;;;;;;;5.20;2.10;;;19.50;99.90;;;;;;4953437;28;20568;-76
2022/06/12 01:37:02;;;;;;;3.40;1.97;;;19.50;99.90;;;;;;4936213;28;20564;-74
2022/06/12 01:39:43;;;;;;;5.80;2.47;;;19.50;99.90;;;;;;4951925;28;21131;-75
2022/06/12 01:42:57;;;;;;;8.17;2.03;;;19.40;99.90;;;;;;4952975;28;20678;-75
2022/06/12 01:45:41;;;;;;;5.70;1.93;;;19.30;99.90;;;;;;4915325;29;21212;-74
2022/06/12 01:48:41;;;;;;;6.67;3.27;;;19.30;99.90;;;;;;4952337;28;20596;-74
2022/06/12 01:51:13;;;;;;;11.23;2.87;;;19.20;99.90;;;;;;4952503;28;21074;-75
2022/06/12 01:53:53;;;;;;;4.30;2.10;;;19.20;99.90;;;;;;4951944;28;20663;-75
2022/06/12 01:56:44;;;;;;;7.23;2.10;;;19.20;99.90;;;;;;4956746;28;20675;-75
2022/06/12 01:59:21;;;;;;;6.60;2.60;;;19.10;99.90;;;;;;4957211;28;20622;-75
2022/06/12 02:02:12;;;;;;;5.60;2.10;;;19.10;99.90;;;;;;4938736;28;20606;-75
2022/06/12 02:04:54;;;;;;;6.60;2.07;;;19.00;99.90;;;;;;4957235;28;21135;-75
2022/06/12 02:07:29;;;;;;;6.10;3.00;;;18.90;99.90;;;;;;4956989;28;20567;-75
2022/06/12 02:10:20;;;;;;;7.23;2.40;;;18.90;99.90;;;;;;4955370;28;20960;-75
2022/06/12 02:13:11;;;;;;;6.57;2.43;;;18.80;99.90;;;;;;4950528;28;20694;-75
2022/06/12 02:16:00;;;;;;;8.17;2.17;;;18.80;99.90;;;;;;4956743;28;20971;-75
2022/06/12 02:18:41;;;;;;;9.57;2.60;;;18.70;99.90;;;;;;4956859;28;20568;-75
2022/06/12 02:21:28;;;;;;;5.13;2.90;;;18.70;99.90;;;;;;4955988;28;20975;-75
2022/06/12 02:24:07;;;;;;;8.33;3.10;;;18.60;99.90;;;;;;4961294;28;20981;-80
2022/06/12 02:26:42;;;;;;;6.40;3.20;;;18.50;99.90;;;;;;4939589;28;20682;-80
2022/06/12 02:29:22;;;;;;;6.10;2.90;;;18.50;99.90;;;;;;4956603;28;20568;-80
2022/06/12 02:31:52;;;;;;;5.90;2.60;;;18.40;99.90;;;;;;4957553;28;20610;-80
2022/06/12 02:34:27;;;;;;;4.63;2.47;;;18.40;99.90;;;;;;4956521;28;20615;-80
2022/06/12 02:36:58;;;;;;;6.27;3.27;;;18.40;99.90;;;;;;4956164;28;20662;-80
2022/06/12 02:39:35;;;;;;;6.37;3.17;;;18.30;99.90;;;;;;4956458;28;20604;-80
2022/06/12 02:42:10;;;;;;;6.83;3.23;;;18.30;99.90;;;;;;4955716;28;20611;-80
2022/06/12 02:44:52;;;;;;;8.60;3.20;;;18.30;99.90;;;;;;4956279;28;20576;-80
2022/06/12 02:47:24;;;;;;;9.60;3.47;;;18.20;99.90;;;;;;4956254;28;21143;-80
2022/06/12 02:49:52;;;;;;;9.50;4.07;;;18.20;99.90;;;;;;4938911;28;20679;-80
2022/06/12 02:52:37;;;;;;;4.90;3.17;;;18.20;99.90;;;;;;4955781;28;20596;-80
2022/06/12 02:55:13;;;;;;;8.80;3.63;;;18.20;99.90;;;;;;4939108;29;20580;-80
2022/06/12 02:57:45;;;;;;;6.00;3.60;;;18.20;99.90;;;;;;4923330;29;21060;-80
2022/06/12 03:00:35;;;;;;;4.40;3.07;;;18.10;99.90;;;;;;4959838;28;21147;-80
2022/06/12 03:03:15;;;;;;;4.97;3.83;;;18.10;99.90;;;;;;4956022;28;20576;-80
2022/06/12 03:05:46;;;;;;;8.07;2.63;;;18.10;99.90;;;;;;4955218;28;20934;-75
2022/06/12 03:08:16;;;;;;;7.33;3.47;;;18.10;99.90;;;;;;4945803;29;20588;-75
2022/06/12 03:10:48;;;;;;;6.00;3.30;;;18.10;99.90;;;;;;4951578;28;20662;-75
2022/06/12 03:13:15;;;;;;;5.53;3.13;;;18.00;99.90;;;;;;4955811;28;20563;-75
2022/06/12 03:16:09;;;;;;;9.00;3.97;;;18.00;99.90;;;;;;4938715;29;20905;-75
2022/06/12 03:18:39;;;;;;;7.97;3.50;;;18.00;99.90;;;;;;4940003;28;20592;-75
2022/06/12 03:21:13;;;;;;;11.80;3.30;;;18.00;99.90;;;;;;4954533;28;20607;-75
2022/06/12 03:24:08;;;;;;;7.17;4.30;;;17.90;99.90;;;;;;4955668;28;20568;-75
2022/06/12 03:26:49;;;;;;;6.47;3.30;;;17.90;99.90;;;;;;4955624;28;21163;-75
2022/06/12 03:29:24;;;;;;;7.87;2.93;;;17.90;99.90;;;;;;4955453;28;20587;-75
2022/06/12 03:32:07;;;;;;;10.57;4.07;;;17.80;99.90;;;;;;4953238;28;20615;-75
2022/06/12 03:34:46;;;;;;;12.17;3.43;;;17.80;99.90;;;;;;4954651;28;20575;-75
2022/06/12 03:37:19;;;;;;;7.63;3.27;;;17.80;99.90;;;;;;4960592;28;21516;-75
2022/06/12 03:40:28;;;;;;;8.63;3.47;;;17.80;99.90;;;;;;4955206;28;20575;-74
2022/06/12 03:43:08;;;;;;;7.97;4.13;;;17.80;99.90;;;;;;4919134;29;20970;-75
2022/06/12 03:45:48;;;;;;;7.40;3.60;;;17.80;99.90;;;;;;4940428;29;21060;-75
2022/06/12 03:48:41;;;;;;;4.70;2.30;;;17.80;99.90;;;;;;4935792;29;20675;-75
2022/06/12 03:51:14;;;;;;;8.33;3.47;;;17.80;99.90;;;;;;4934924;29;20639;-75
2022/06/12 03:53:58;;;;;;;6.00;3.60;;;17.80;99.90;;;;;;4936031;29;20576;-75
2022/06/12 03:59:50;;;;;;;8.27;3.13;;;17.80;99.90;;;;;;4935666;29;20576;-75
2022/06/12 04:02:19;;;;;;;5.60;2.87;;;17.80;99.90;;;;;;4934953;29;21080;-76
2022/06/12 04:04:47;;;;;;;6.23;2.93;;;17.80;99.90;;;;;;4935547;29;20565;-75
2022/06/12 04:07:16;;;;;;;7.33;2.93;;;17.80;99.90;;;;;;4935650;29;20664;-75
2022/06/12 04:09:48;;;;;;;8.70;3.27;;;17.80;99.90;;;;;;4935269;29;20644;-75
2022/06/12 04:12:23;;;;;;;5.27;2.77;;;17.90;99.90;;;;;;4935069;29;20613;-75
2022/06/12 04:14:56;;;;;;;7.80;2.70;;;17.90;99.90;;;;;;4939577;29;20581;-75
2022/06/12 04:17:22;;;;;;;6.10;2.60;;;17.90;99.90;;;;;;4935107;29;21046;-75
2022/06/12 04:20:07;;;;;;;9.10;3.20;;;17.90;99.90;;;;;;4934632;29;20927;-75
2022/06/12 04:22:56;;;;;;;9.37;2.30;;;17.90;99.90;;;;;;4935226;29;20573;-75
2022/06/12 04:25:37;;;;;;;8.87;2.33;;;18.00;99.90;;;;;;4934013;29;20585;-76
2022/06/12 04:28:06;;;;;;;7.43;2.43;;;18.00;99.90;;;;;;4935555;29;21479;-75
2022/06/12 04:30:38;;;;;;;9.50;2.63;;;18.10;99.90;;;;;;4934161;29;20986;-75
2022/06/12 04:33:34;;;;;;;9.23;2.50;;;18.10;99.90;;;;;;4935107;29;20561;-76
2022/06/12 04:36:03;;;;;;;8.93;2.90;;;18.10;99.90;;;;;;4937454;28;20589;-75
2022/06/12 04:38:31;;;;;;;5.83;3.07;;;18.20;99.90;;;;;;4946224;28;20591;-75
2022/06/12 04:40:57;;;;;;;9.67;3.10;;;18.20;99.90;;;;;;4947137;28;20623;-76
2022/06/12 04:43:23;;;;;;;6.20;2.33;;;18.20;99.90;;;;;;4930665;29;20599;-75
2022/06/12 04:45:49;;;;;;;4.83;2.10;;;18.30;99.90;;;;;;4953784;28;20571;-76
2022/06/12 04:48:26;;;;;;;8.50;2.20;;;18.30;99.90;;;;;;4954121;28;21083;-75
2022/06/12 04:50:52;;;;;;;6.47;2.20;;;18.30;99.90;;;;;;4954131;28;20692;-75
2022/06/12 04:53:18;;;;;;;7.77;2.83;;;18.40;99.90;;;;;;4953816;28;20626;-75
2022/06/12 04:55:44;;;;;;;7.37;2.60;;;18.40;99.90;;;;;;4954065;28;21453;-75
2022/06/12 04:58:09;;;;;;;8.10;2.40;;;18.50;99.90;;;;;;4953961;28;20168;-75
2022/06/12 05:00:37;;;;;;;7.90;2.60;;;18.50;99.90;;;;;;4935610;29;20326;-75
2022/06/12 05:03:03;;;;;;;3.73;1.70;;;18.60;99.90;;;;;;4952734;28;20576;-75
2022/06/12 05:05:30;;;;;;;6.20;2.17;;;18.70;99.90;;;;;;4936522;29;20950;-75
2022/06/12 05:07:56;;;;;;;5.50;2.30;;;18.80;99.90;;;;;;4936680;29;20575;-75
2022/06/12 05:10:22;;;;;;;7.80;2.10;;;18.90;99.90;;;;;;4953431;28;20678;-75
2022/06/12 05:12:48;;;;;;;4.33;2.13;;;19.00;99.90;;;;;;4953241;28;20569;-75
2022/06/12 05:15:14;;;;;;;4.53;1.90;;;19.10;99.90;;;;;;4953642;28;20581;-75
2022/06/12 05:17:47;;;;;;;5.93;1.80;;;19.30;99.90;;;;;;4953875;28;20568;-75
2022/06/12 05:20:26;;;;;;;5.73;2.00;;;19.40;99.90;;;;;;4936098;28;20651;-75
2022/06/12 05:22:52;;;;;;;5.00;2.30;;;19.60;99.90;;;;;;4953680;28;20576;-75
2022/06/12 05:25:19;;;;;;;6.60;2.07;;;19.70;99.90;;;;;;4953730;28;20604;-75
2022/06/12 05:27:46;;;;;;;3.43;1.73;;;19.70;99.90;;;;;;4957232;28;20583;-75
2022/06/12 05:30:15;;;;;;;6.90;2.40;;;19.80;99.90;;;;;;4952743;28;20615;-75
2022/06/12 05:32:43;;;;;;;4.97;1.80;;;19.90;99.90;;;;;;4953069;28;20634;-75
2022/06/12 05:35:09;;;;;;;6.20;2.30;;;20.00;99.90;;;;;;4953541;28;20667;-75
2022/06/12 05:37:36;;;;;;;5.07;1.40;;;20.20;99.90;;;;;;4953489;28;20612;-75
2022/06/12 05:40:07;;;;;;;11.80;2.60;;;20.40;99.90;;;;;;4953198;28;20579;-75
2022/06/12 05:42:32;;;;;;;5.30;1.83;;;20.50;99.90;;;;;;4935865;29;20611;-75
2022/06/12 05:44:59;;;;;;;8.73;1.60;;;20.90;99.90;;;;;;4953269;28;21033;-75
2022/06/12 05:47:24;;;;;;;6.57;1.83;;;21.30;99.90;;;;;;4953353;28;20199;-75
2022/06/12 05:49:50;;;;;;;6.97;1.47;;;21.70;99.90;;;;;;4952924;28;20623;-74
2022/06/12 05:52:16;;;;;;;6.40;1.63;;;22.30;99.90;;;;;;4935672;28;20283;-74
2022/06/12 05:54:42;;;;;;;3.77;1.57;;;23.10;99.90;;;;;;4936334;29;20621;-75
2022/06/12 05:57:08;;;;;;;6.00;1.67;;;23.90;99.90;;;;;;4953158;28;20572;-74
2022/06/12 05:59:34;;;;;;;3.57;1.47;;;24.90;99.90;;;;;;4953318;28;20576;-75
2022/06/12 06:01:59;;;;;;;4.30;1.73;;;25.80;99.90;;;;;;4935326;29;20215;-75
2022/06/12 06:04:25;;;;;;;5.37;1.63;;;26.80;99.90;;;;;;4955774;29;20588;-75
2022/06/12 06:06:54;;;;;;;5.30;1.67;;;27.90;99.90;;;;;;4937074;29;20259;-75
2022/06/12 06:09:21;;;;;;;3.90;1.57;;;28.80;99.90;;;;;;4953174;28;20544;-75
2022/06/12 06:11:47;;;;;;;7.30;1.70;;;29.80;99.90;;;;;;4951001;28;20612;-75
2022/06/12 06:14:14;;;;;;;5.43;1.73;;;30.70;99.90;;;;;;4953027;28;20922;-76
2022/06/12 06:16:42;;;;;;;4.03;1.50;;;31.50;99.90;;;;;;4953177;28;20646;-75
2022/06/12 06:19:09;;;;;;;4.87;1.50;;;32.20;99.90;;;;;;4936046;29;20676;-75
2022/06/12 06:21:35;;;;;;;5.40;1.80;;;32.90;98.20;;;;;;4952111;28;21157;-77
2022/06/12 06:24:01;;;;;;;7.83;1.80;;;33.60;96.60;;;;;;4951154;28;21141;-76
2022/06/12 06:26:27;;;;;;;3.77;1.40;;;34.10;94.50;;;;;;4953002;28;20594;-75
2022/06/12 06:28:55;;;;;;;4.50;1.53;;;34.60;92.60;;;;;;4919928;29;20187;-75
2022/06/12 06:31:21;;;;;;;8.70;1.50;;;34.90;90.90;;;;;;4952260;28;20725;-76
2022/06/12 06:33:47;;;;;;;4.93;2.70;;;35.30;89.70;;;;;;4953224;28;20671;-76
2022/06/12 06:36:15;;;;;;;5.47;1.63;;;35.60;86.90;;;;;;4953124;28;20627;-76
2022/06/12 06:38:41;;;;;;;4.47;2.10;;;35.90;84.50;;;;;;4953139;28;20596;-75
2022/06/12 06:41:07;;;;;;;4.80;1.87;;;36.30;82.10;;;;;;4936455;28;20607;-76
2022/06/12 06:46:18;;;;;;;3.90;1.57;;;37.00;77.20;;;;;;4956385;28;20172;-75
2022/06/12 06:48:44;;;;;;;4.40;1.70;;;37.40;75.40;;;;;;4956617;28;20939;-75
2022/06/12 06:51:10;;;;;;;5.37;1.70;;;37.60;71.60;;;;;;4938364;28;20639;-76
2022/06/12 06:53:35;;;;;;;6.70;1.60;;;37.70;68.30;;;;;;4956214;28;20180;-75
2022/06/12 06:56:03;;;;;;;4.73;1.70;;;37.80;65.90;;;;;;4939203;29;20655;-76
2022/06/12 06:58:31;;;;;;;3.57;1.43;;;38.00;63.60;;;;;;4956157;28;20175;-76
2022/06/12 07:00:58;;;;;;;3.30;1.20;;;38.20;61.70;;;;;;4955409;28;20744;-76
2022/06/12 07:03:24;;;;;;;3.37;1.10;;;38.30;59.60;;;;;;4956422;28;21259;-78
2022/06/12 07:05:51;;;;;;;3.10;0.97;;;38.50;58.00;;;;;;4956712;28;20575;-78
2022/06/12 07:08:18;;;;;;;2.73;0.80;;;38.60;57.20;;;;;;4956457;28;20579;-78
2022/06/12 07:10:49;;;;;;;3.90;1.47;;;38.70;55.90;;;;;;4939017;29;20635;-78
2022/06/12 07:13:15;;;;;;;5.00;1.47;;;38.80;54.80;;;;;;4956974;28;20564;-78
2022/06/12 07:15:42;;;;;;;2.47;1.10;;;38.90;54.30;;;;;;4939661;29;20614;-77
2022/06/12 07:18:08;;;;;;;3.10;1.40;;;39.10;53.90;;;;;;4941399;29;20583;-77
2022/06/12 07:20:39;;;;;;;3.27;1.10;;;39.20;52.20;;;;;;4957673;28;20967;-77
2022/06/12 07:23:07;;;;;;;3.00;1.23;;;39.20;51.70;;;;;;4938996;29;20579;-77
2022/06/12 07:25:39;;;;;;;2.63;0.90;;;39.40;51.00;;;;;;4956025;28;20583;-77
2022/06/12 07:28:05;;;;;;;3.43;1.10;;;39.40;50.60;;;;;;4938766;29;20580;-77
2022/06/12 07:30:31;;;;;;;2.23;0.77;;;39.70;49.90;;;;;;4954750;28;20646;-77
2022/06/12 07:32:57;;;;;;;2.23;0.70;;;39.90;49.30;;;;;;4955701;28;20572;-77
2022/06/12 07:35:23;;;;;;;3.37;0.80;;;40.10;48.90;;;;;;4955705;28;20173;-77
2022/06/12 07:37:49;;;;;;;3.53;1.10;;;40.30;48.00;;;;;;4955517;28;20216;-77
2022/06/12 07:40:20;;;;;;;2.83;0.90;;;40.50;46.80;;;;;;4937730;28;20176;-76
2022/06/12 07:42:46;;;;;;;3.10;1.10;;;40.50;45.90;;;;;;4954973;28;20614;-76
2022/06/12 07:45:16;;;;;;;1.77;0.87;;;40.70;45.70;;;;;;4955538;28;20664;-77
2022/06/12 07:47:42;;;;;;;2.10;0.80;;;40.80;44.60;;;;;;4954999;28;20580;-76
2022/06/12 07:50:08;;;;;;;2.13;0.90;;;41.00;44.70;;;;;;4953773;28;20992;-76
2022/06/12 07:52:36;;;;;;;2.20;0.90;;;41.10;44.10;;;;;;4937329;29;20756;-76
2022/06/12 07:55:02;;;;;;;1.90;0.70;;;41.30;43.90;;;;;;4955505;28;20564;-76
2022/06/12 07:57:28;;;;;;;2.90;0.80;;;41.40;43.10;;;;;;4955487;28;20576;-76
2022/06/12 07:59:54;;;;;;;2.80;1.00;;;41.40;42.40;;;;;;4955095;28;20612;-76
2022/06/12 08:02:19;;;;;;;3.83;1.33;;;41.50;42.10;;;;;;4954472;28;20200;-76
2022/06/12 08:04:45;;;;;;;2.20;0.87;;;41.60;42.00;;;;;;4953481;28;20176;-76
2022/06/12 08:07:11;;;;;;;2.13;0.90;;;41.70;41.60;;;;;;4954590;28;20168;-76
2022/06/12 08:09:37;;;;;;;2.33;1.10;;;41.80;40.50;;;;;;4953361;28;20207;-77
2022/06/12 08:12:03;;;;;;;1.70;0.80;;;41.80;40.30;;;;;;4953285;28;20320;-75
2022/06/12 08:14:32;;;;;;;2.93;1.00;;;41.80;40.00;;;;;;4954921;28;20180;-77
2022/06/12 08:16:58;;;;;;;2.10;0.60;;;41.90;39.70;;;;;;4954669;28;20574;-76
2022/06/12 08:22:09;;;;;;;3.40;0.87;;;42.00;38.10;;;;;;4954385;28;20683;-76
2022/06/12 08:24:36;;;;;;;2.90;0.90;;;41.90;38.30;;;;;;4954506;28;20690;-76
2022/06/12 08:27:03;;;;;;;2.47;0.80;;;41.80;38.00;;;;;;4954484;28;20567;-76
2022/06/12 08:29:29;;;;;;;1.63;0.70;;;41.90;38.30;;;;;;4954475;28;20982;-76
2022/06/12 08:32:01;;;;;;;1.70;0.60;;;41.90;37.50;;;;;;4954014;28;20690;-76
2022/06/12 08:34:37;;;;;;;3.23;0.80;;;42.00;37.20;;;;;;4956105;28;20180;-76
2022/06/12 08:37:08;;;;;;;2.07;0.60;;;42.10;37.70;;;;;;4921194;29;21165;-76
2022/06/12 08:39:34;;;;;;;2.10;0.80;;;42.20;37.70;;;;;;4954144;28;20631;-76
2022/06/12 08:42:15;;;;;;;2.20;0.70;;;42.20;37.10;;;;;;4953580;28;20698;-76
2022/06/12 08:44:52;;;;;;;2.47;0.70;;;42.40;36.90;;;;;;4953007;28;20619;-76
2022/06/12 08:47:41;;;;;;;2.47;0.67;;;42.40;36.90;;;;;;4937131;29;21139;-75
2022/06/12 08:50:18;;;;;;;4.00;0.73;;;42.50;36.90;;;;;;4936307;29;20711;-76
2022/06/12 08:52:55;;;;;;;1.60;0.70;;;42.70;37.00;;;;;;4953412;28;20587;-76
2022/06/12 08:55:33;;;;;;;3.50;0.93;;;42.90;36.10;;;;;;4954122;28;20603;-76
2022/06/12 08:58:11;;;;;;;2.70;0.83;;;43.00;35.90;;;;;;4952752;28;20784;-75
2022/06/12 09:00:38;;;;;;;4.00;0.87;;;43.10;35.90;;;;;;4953016;28;20725;-75
2022/06/12 09:03:07;;;;;;;1.93;0.83;;;43.20;35.80;;;;;;4936922;29;20583;-75
2022/06/12 09:05:49;;;;;;;2.03;0.70;;;43.20;35.20;;;;;;4953334;28;20575;-75
2022/06/12 09:08:32;;;;;;;1.57;0.60;;;43.30;35.00;;;;;;4953662;28;20642;-76
2022/06/12 09:11:12;;;;;;;2.57;0.70;;;43.30;33.60;;;;;;4955908;28;20618;-76
2022/06/12 09:13:50;;;;;;;3.60;0.70;;;43.10;33.70;;;;;;4936718;29;21237;-76
2022/06/12 09:16:22;;;;;;;2.90;0.60;;;42.90;33.80;;;;;;4953856;28;20576;-76
2022/06/12 09:19:06;;;;;;;2.73;0.60;;;42.90;34.10;;;;;;4953691;28;20579;-74
2022/06/12 09:21:38;;;;;;;1.40;0.50;;;42.90;33.50;;;;;;4952547;28;20664;-75
2022/06/12 09:24:11;;;;;;;1.50;0.70;;;42.80;33.00;;;;;;4953731;28;20561;-75
2022/06/12 09:27:03;;;;;;;1.83;0.60;;;42.90;32.30;;;;;;4953911;28;21139;-75
2022/06/12 09:30:04;;;;;;;1.80;0.60;;;42.80;31.40;;;;;;4937172;28;20606;-75
2022/06/12 09:32:54;;;;;;;2.30;0.87;;;42.90;32.20;;;;;;4912062;29;20620;-76
2022/06/12 09:35:31;;;;;;;1.60;0.70;;;42.70;30.90;;;;;;4935317;28;20591;-76
2022/06/12 09:38:19;;;;;;;1.50;0.60;;;42.60;31.20;;;;;;4952499;28;21214;-75
2022/06/12 09:40:55;;;;;;;2.07;0.60;;;42.60;31.30;;;;;;4951360;28;20698;-75
2022/06/12 09:43:31;;;;;;;1.57;0.63;;;42.60;30.70;;;;;;4953260;28;20591;-76
2022/06/12 09:46:07;;;;;;;1.20;0.50;;;42.50;30.30;;;;;;4954324;28;21340;-76
2022/06/12 09:48:44;;;;;;;2.20;0.70;;;42.50;30.50;;;;;;4954290;29;20597;-76
2022/06/12 09:51:20;;;;;;;2.27;0.60;;;42.50;30.20;;;;;;4977647;23;20611;-75
2022/06/12 09:54:13;;;;;;;2.10;0.70;;;42.40;30.50;;;;;;4928236;28;20612;-76
2022/06/12 09:56:43;;;;;;;1.33;0.53;;;42.50;30.00;;;;;;4972099;28;20595;-75
2022/06/12 09:59:32;;;;;;;1.67;0.50;;;42.20;29.70;;;;;;4936818;28;20687;-75
2022/06/12 10:02:04;;;;;;;1.40;0.50;;;42.20;30.00;;;;;;4928877;29;20634;-74
2022/06/12 10:04:45;;;;;;;2.00;0.60;;;42.10;30.10;;;;;;4952292;29;20580;-75
2022/06/12 10:07:18;;;;;;;1.30;0.57;;;42.00;29.60;;;;;;4937996;29;20579;-75
2022/06/12 10:09:49;;;;;;;1.80;0.60;;;41.90;29.50;;;;;;4952288;29;20584;-75
2022/06/12 10:12:20;;;;;;;1.40;0.50;;;41.80;29.80;;;;;;4938402;29;20600;-75
2022/06/12 10:15:01;;;;;;;2.03;0.60;;;41.70;29.30;;;;;;4951664;29;20596;-75
2022/06/12 10:17:52;;;;;;;2.37;0.70;;;41.80;29.50;;;;;;4955468;28;20971;-75
2022/06/12 10:20:23;;;;;;;1.40;0.50;;;41.70;29.00;;;;;;4917232;29;20670;-75
2022/06/12 10:22:52;;;;;;;1.70;0.60;;;41.60;28.90;;;;;;4955092;29;21082;-75
2022/06/12 10:25:21;;;;;;;1.47;0.70;;;41.40;29.00;;;;;;4956487;29;21059;-75
2022/06/12 10:27:51;;;;;;;2.47;0.70;;;41.40;29.00;;;;;;4939377;29;20580;-75
2022/06/12 10:30:37;;;;;;;1.90;0.70;;;41.30;29.60;;;;;;4956489;29;20576;-76
2022/06/12 10:33:23;;;;;;;2.37;0.77;;;41.40;29.20;;;;;;4923208;29;21199;-76
2022/06/12 10:35:59;;;;;;;1.70;0.70;;;41.50;29.60;;;;;;4939422;29;20634;-76
2022/06/12 10:38:29;;;;;;;1.90;0.90;;;41.50;30.00;;;;;;4956359;29;20575;-76
2022/06/12 10:41:01;;;;;;;2.27;0.80;;;41.50;30.00;;;;;;4955508;29;20678;-76
2022/06/12 10:43:35;;;;;;;1.67;0.80;;;41.50;30.00;;;;;;4956203;29;20595;-77
2022/06/12 10:46:16;;;;;;;2.20;0.90;;;41.50;29.80;;;;;;4956353;29;20564;-76
2022/06/12 10:48:43;;;;;;;5.40;1.43;;;41.50;29.80;;;;;;4954210;29;20652;-77
2022/06/12 10:51:11;;;;;;;2.53;1.40;;;41.40;29.90;;;;;;4954411;29;20626;-77
2022/06/12 10:53:37;;;;;;;3.33;1.40;;;41.30;29.80;;;;;;4938997;29;20603;-76
2022/06/12 10:56:19;;;;;;;2.40;0.90;;;41.00;29.60;;;;;;4942788;29;20580;-76
2022/06/12 10:59:04;;;;;;;3.50;1.00;;;40.70;29.10;;;;;;4939191;29;20572;-77
2022/06/12 11:01:54;;;;;;;2.07;0.80;;;40.30;29.70;;;;;;4955054;29;21088;-76
2022/06/12 11:04:33;;;;;;;1.87;0.70;;;39.90;29.50;;;;;;4955612;29;21004;-76
2022/06/12 11:07:20;;;;;;;3.40;0.83;;;39.30;29.90;;;;;;4938775;29;20580;-76
2022/06/12 11:10:08;;;;;;;1.63;0.70;;;39.00;30.70;;;;;;4955524;29;20575;-75
2022/06/12 11:12:55;;;;;;;3.20;0.90;;;38.80;30.80;;;;;;4955151;29;20702;-75
2022/06/12 11:15:52;;;;;;;3.50;1.40;;;38.70;31.10;;;;;;4938519;29;20956;-75
2022/06/12 11:18:45;;;;;;;3.00;1.20;;;38.60;30.40;;;;;;4955569;29;20560;-75
2022/06/12 11:21:35;;;;;;;3.43;1.17;;;38.50;30.40;;;;;;4954790;29;20662;-75
2022/06/12 11:24:10;;;;;;;2.87;0.90;;;38.40;30.60;;;;;;4954601;29;20590;-75
2022/06/12 11:26:55;;;;;;;3.70;1.03;;;38.30;31.00;;;;;;4955583;29;20567;-75
2022/06/12 11:29:47;;;;;;;1.83;0.70;;;38.20;31.00;;;;;;4955234;29;20641;-74
2022/06/12 11:33:08;;;;;;;3.40;0.90;;;38.10;31.20;;;;;;4937553;29;20603;-74
2022/06/12 11:36:16;;;;;;;2.30;0.87;;;38.00;31.10;;;;;;4846554;29;20652;-74
2022/06/12 11:39:05;;;;;;;3.20;1.40;;;37.90;31.30;;;;;;4955357;29;20572;-75
2022/06/12 11:41:53;;;;;;;2.87;1.30;;;37.80;31.00;;;;;;4937365;29;21305;-75
2022/06/12 11:44:27;;;;;;;1.90;1.00;;;37.70;31.40;;;;;;4955160;29;20572;-75
2022/06/12 11:47:06;;;;;;;3.10;0.80;;;37.60;31.70;;;;;;4954806;29;20574;-75
2022/06/12 11:50:08;;;;;;;2.30;1.37;;;37.50;31.70;;;;;;4955073;29;20564;-75
2022/06/12 11:52:52;;;;;;;3.10;1.73;;;37.40;31.90;;;;;;4954339;29;21170;-74
2022/06/12 11:55:55;;;;;;;6.33;0.93;;;37.20;31.60;;;;;;4954977;29;20936;-75
2022/06/12 11:58:40;;;;;;;2.30;0.87;;;36.90;32.00;;;;;;4955023;29;20618;-75
2022/06/12 12:01:10;;;;;;;2.87;0.90;;;36.60;32.30;;;;;;4952547;29;20671;-75
2022/06/12 12:04:03;;;;;;;3.60;1.30;;;36.40;32.40;;;;;;4954929;29;20571;-75
2022/06/12 12:06:53;;;;;;;3.77;1.27;;;36.10;32.90;;;;;;4954976;29;20567;-75
2022/06/12 12:10:00;;;;;;;3.47;0.97;;;35.80;33.00;;;;;;4955041;29;20604;-75
2022/06/12 12:12:34;;;;;;;3.57;1.10;;;35.50;33.50;;;;;;4954450;29;20599;-75
2022/06/12 12:15:05;;;;;;;4.17;1.50;;;35.30;33.80;;;;;;4954512;29;20669;-75
2022/06/12 12:17:37;;;;;;;3.30;0.80;;;35.10;33.20;;;;;;4954517;29;20563;-75
2022/06/12 12:20:27;;;;;;;2.77;0.90;;;34.90;33.00;;;;;;4954379;29;21422;-75
2022/06/12 12:23:02;;;;;;;1.83;0.70;;;34.50;33.90;;;;;;4954584;29;20614;-75
2022/06/12 12:25:36;;;;;;;3.60;0.90;;;34.30;33.80;;;;;;4954459;29;20564;-75
2022/06/12 12:28:11;;;;;;;2.43;0.93;;;34.10;33.80;;;;;;4937163;29;20629;-75
2022/06/12 12:30:41;;;;;;;3.00;1.17;;;33.80;34.10;;;;;;4953120;29;20577;-75
2022/06/12 12:33:17;;;;;;;4.70;1.20;;;33.60;34.60;;;;;;4954224;29;20700;-75
2022/06/12 12:41:21;;;;;;;2.53;0.90;;;32.80;34.40;;;;;;4952976;29;20638;-75
2022/06/12 12:43:59;;;;;;;3.93;1.00;;;32.50;34.70;;;;;;4954064;29;20590;-75
2022/06/12 12:46:45;;;;;;;3.80;1.37;;;32.20;35.30;;;;;;4955019;29;21031;-75
2022/06/12 12:49:30;;;;;;;3.20;1.37;;;32.00;34.50;;;;;;4954793;29;20579;-75
2022/06/12 12:52:14;;;;;;;7.90;1.57;;;31.60;34.40;;;;;;4953154;29;20603;-75
2022/06/12 12:55:00;;;;;;;3.23;1.10;;;31.20;34.90;;;;;;4953935;29;20934;-75
2022/06/12 12:57:37;;;;;;;3.77;1.23;;;30.90;35.50;;;;;;4954008;29;20583;-75
2022/06/12 13:00:18;;;;;;;5.93;1.60;;;30.60;35.30;;;;;;4935969;29;21103;-75
2022/06/12 13:02:56;;;;;;;4.63;1.13;;;30.30;35.70;;;;;;4953057;29;20596;-74
2022/06/12 13:05:46;;;;;;;3.90;1.50;;;30.00;36.50;;;;;;4953756;29;20627;-75
2022/06/12 13:08:27;;;;;;;3.33;1.57;;;29.80;36.40;;;;;;4952409;29;20579;-75
2022/06/12 13:11:27;;;;;;;2.73;1.13;;;29.60;36.90;;;;;;4952543;29;20611;-75
2022/06/12 13:14:15;;;;;;;3.00;0.80;;;29.40;37.30;;;;;;4953490;29;21147;-75
2022/06/12 13:16:41;;;;;;;3.93;0.93;;;29.20;37.00;;;;;;4953315;29;20671;-74
2022/06/12 13:19:37;;;;;;;3.53;1.10;;;29.00;37.10;;;;;;4953545;29;20667;-75
2022/06/12 13:22:22;;;;;;;4.93;0.90;;;28.80;37.50;;;;;;4953062;29;20283;-75
2022/06/12 13:25:06;;;;;;;3.40;1.10;;;28.70;37.50;;;;;;4938582;29;20583;-76
2022/06/12 13:27:48;;;;;;;5.13;1.20;;;28.60;37.50;;;;;;4953274;29;20583;-76
2022/06/12 13:30:19;;;;;;;3.10;0.87;;;28.50;37.70;;;;;;4953016;29;20564;-76
2022/06/12 13:32:45;;;;;;;2.73;1.00;;;28.40;38.20;;;;;;4952629;29;20941;-76
2022/06/12 13:35:32;;;;;;;4.70;3.00;;;28.30;38.40;;;;;;4952989;29;20635;-76
2022/06/12 13:38:03;;;;;;;3.60;1.67;;;28.30;38.70;;;;;;4952349;29;20183;-76
2022/06/12 13:40:37;;;;;;;5.00;1.10;;;28.30;38.70;;;;;;4952534;29;21175;-76
2022/06/12 13:43:20;;;;;;;3.67;1.20;;;28.20;38.80;;;;;;4935973;29;20979;-76
2022/06/12 13:45:59;;;;;;;2.93;1.00;;;28.10;39.30;;;;;;4952115;29;20576;-75